Time;durP1;ratioP1;P1;durP2;ratioP2;P2;SDS_P1;SDS_P2;PMS_P1;PMS_P2;Temp;Humidity;BMP_temperature;BMP_pressure;BME280_temperature;BME280_humidity;BME280_pressure;Samples;Min_cycle;Max_cycle;Signal;HPM_P1;HPM_P2
2023/04/19 00:02:17;;;;;;;4.35;1.52;;;;;;;;;;5008971;28;20054;-63
2023/04/19 00:04:47;;;;;;;4.22;1.77;;;;;;;;;;5008868;28;20530;-65
2023/04/19 00:07:19;;;;;;;4.05;1.60;;;;;;;;;;4973655;28;20058;-62
2023/04/19 00:09:49;;;;;;;5.13;1.85;;;;;;;;;;4937560;28;20054;-68
2023/04/19 00:12:19;;;;;;;7.30;1.98;;;;;;;;;;4906145;28;20058;-62
2023/04/19 00:14:50;;;;;;;6.45;1.75;;;;;;;;;;4933349;29;20058;-62
2023/04/19 00:17:20;;;;;;;6.47;2.00;;;;;;;;;;4951050;29;20055;-62
2023/04/19 00:19:51;;;;;;;10.20;2.10;;;;;;;;;;4965680;28;20054;-62
2023/04/19 00:22:21;;;;;;;5.60;1.80;;;;;;;;;;4969508;28;20054;-61
2023/04/19 00:24:51;;;;;;;6.43;2.05;;;;;;;;;;4969626;28;20065;-62
2023/04/19 00:27:22;;;;;;;6.53;2.15;;;;;;;;;;4969529;28;20067;-62
2023/04/19 00:29:52;;;;;;;5.72;1.95;;;;;;;;;;4969587;28;20061;-62
2023/04/19 00:32:22;;;;;;;3.58;1.65;;;;;;;;;;4953216;28;20051;-62
2023/04/19 00:34:52;;;;;;;5.45;2.13;;;;;;;;;;4950846;29;20051;-65
2023/04/19 00:37:22;;;;;;;4.10;1.65;;;;;;;;;;4943204;29;20081;-62
2023/04/19 00:39:52;;;;;;;9.90;2.10;;;;;;;;;;4950586;28;20062;-61
2023/04/19 00:42:22;;;;;;;5.32;1.80;;;;;;;;;;4912285;29;20056;-65
2023/04/19 00:44:53;;;;;;;6.50;2.20;;;;;;;;;;4892842;29;20477;-61
2023/04/19 00:47:23;;;;;;;9.27;4.57;;;;;;;;;;4902103;29;20059;-63
2023/04/19 00:49:53;;;;;;;9.65;3.22;;;;;;;;;;4874604;29;20057;-62
2023/04/19 00:52:24;;;;;;;6.72;1.88;;;;;;;;;;4893405;29;20068;-62
2023/04/19 00:54:57;;;;;;;5.57;1.95;;;;;;;;;;4878347;29;20064;-61
2023/04/19 00:57:29;;;;;;;4.50;1.65;;;;;;;;;;4878185;29;20052;-62
2023/04/19 01:00:00;;;;;;;4.78;1.70;;;;;;;;;;4870795;29;20197;-64
2023/04/19 01:02:30;;;;;;;5.97;2.00;;;;;;;;;;4868505;29;20058;-64
2023/04/19 01:05:02;;;;;;;5.80;1.73;;;;;;;;;;4837517;29;20058;-62
2023/04/19 01:07:36;;;;;;;5.38;1.70;;;;;;;;;;4855838;29;20057;-62
2023/04/19 01:10:06;;;;;;;4.05;2.03;;;;;;;;;;4881187;29;20049;-64
2023/04/19 01:12:37;;;;;;;4.97;1.63;;;;;;;;;;4874853;29;20090;-62
2023/04/19 01:15:07;;;;;;;3.70;1.63;;;;;;;;;;4874650;29;20068;-62
2023/04/19 01:17:39;;;;;;;4.50;1.95;;;;;;;;;;4874669;29;20064;-62
2023/04/19 01:20:10;;;;;;;4.93;1.75;;;;;;;;;;4913521;29;20048;-62
2023/04/19 01:22:40;;;;;;;5.30;1.85;;;;;;;;;;4930856;29;20062;-65
2023/04/19 01:25:11;;;;;;;4.53;1.63;;;;;;;;;;4930815;29;20068;-62
2023/04/19 01:27:43;;;;;;;6.60;1.80;;;;;;;;;;4911355;29;20048;-69
2023/04/19 01:30:13;;;;;;;5.95;2.10;;;;;;;;;;4880637;29;20087;-61
2023/04/19 01:32:43;;;;;;;7.78;1.90;;;;;;;;;;4912006;29;20078;-61
2023/04/19 01:35:14;;;;;;;4.13;1.77;;;;;;;;;;4920079;29;20161;-62
2023/04/19 01:37:44;;;;;;;6.70;1.73;;;;;;;;;;4957049;28;20055;-62
2023/04/19 01:40:16;;;;;;;6.10;2.30;;;;;;;;;;4934232;29;20063;-63
2023/04/19 01:42:46;;;;;;;5.97;1.50;;;;;;;;;;4965970;28;20047;-62
2023/04/19 01:45:16;;;;;;;6.30;1.92;;;;;;;;;;4949968;29;20466;-61
2023/04/19 01:47:46;;;;;;;7.05;2.63;;;;;;;;;;4950043;29;20055;-62
2023/04/19 01:50:16;;;;;;;5.47;2.22;;;;;;;;;;4918033;29;20062;-61
2023/04/19 01:52:46;;;;;;;6.18;2.13;;;;;;;;;;4914536;29;20524;-67
2023/04/19 01:55:16;;;;;;;5.97;2.08;;;;;;;;;;4931113;29;20052;-61
2023/04/19 01:57:46;;;;;;;7.00;1.80;;;;;;;;;;4901262;29;20138;-62
2023/04/19 02:00:17;;;;;;;4.57;1.98;;;;;;;;;;4933718;29;20058;-61
2023/04/19 02:02:48;;;;;;;4.65;2.00;;;;;;;;;;4934113;29;20055;-62
2023/04/19 02:05:18;;;;;;;4.00;1.88;;;;;;;;;;4942948;29;20047;-61
2023/04/19 02:07:48;;;;;;;5.70;2.25;;;;;;;;;;4953071;29;20454;-62
2023/04/19 02:10:18;;;;;;;4.43;1.35;;;;;;;;;;4952903;29;20055;-62
2023/04/19 02:12:48;;;;;;;7.32;1.88;;;;;;;;;;4949141;28;20055;-61
2023/04/19 02:15:20;;;;;;;6.10;1.67;;;;;;;;;;4933608;29;20052;-61
2023/04/19 02:17:50;;;;;;;7.70;2.03;;;;;;;;;;4933906;29;20059;-62
2023/04/19 02:20:20;;;;;;;6.72;1.83;;;;;;;;;;4877088;29;20049;-61
2023/04/19 02:22:50;;;;;;;5.97;2.15;;;;;;;;;;4846315;29;20414;-62
2023/04/19 02:25:20;;;;;;;6.85;2.72;;;;;;;;;;4876738;29;20049;-62
2023/04/19 02:27:50;;;;;;;7.32;2.22;;;;;;;;;;4877272;29;20577;-61
2023/04/19 02:30:21;;;;;;;6.90;2.60;;;;;;;;;;4881579;29;20059;-61
2023/04/19 02:32:51;;;;;;;7.05;2.42;;;;;;;;;;4830769;29;20054;-62
2023/04/19 02:35:21;;;;;;;5.38;2.22;;;;;;;;;;4766978;29;20058;-61
2023/04/19 02:37:51;;;;;;;7.18;2.83;;;;;;;;;;4798439;29;20063;-67
2023/04/19 02:40:22;;;;;;;4.97;2.42;;;;;;;;;;4803693;29;20516;-62
2023/04/19 02:42:52;;;;;;;6.03;2.17;;;;;;;;;;4821504;29;20065;-61
2023/04/19 02:45:22;;;;;;;6.90;2.08;;;;;;;;;;4830074;29;20065;-62
2023/04/19 02:47:55;;;;;;;5.45;2.22;;;;;;;;;;4858649;29;20537;-61
2023/04/19 02:50:26;;;;;;;5.47;2.00;;;;;;;;;;4846116;29;20056;-64
2023/04/19 02:52:57;;;;;;;6.38;2.53;;;;;;;;;;4876937;29;20068;-63
2023/04/19 02:55:30;;;;;;;7.65;2.30;;;;;;;;;;4876370;29;20060;-61
2023/04/19 02:58:06;;;;;;;6.68;2.30;;;;;;;;;;4837250;29;20053;-64
2023/04/19 03:00:43;;;;;;;5.90;2.10;;;;;;;;;;4826721;29;20061;-62
2023/04/19 03:03:16;;;;;;;7.80;2.83;;;;;;;;;;4887685;29;20618;-61
2023/04/19 03:05:46;;;;;;;6.53;2.30;;;;;;;;;;4876178;29;20069;-62
2023/04/19 03:08:17;;;;;;;8.40;2.90;;;;;;;;;;4875362;29;20053;-63
2023/04/19 03:10:47;;;;;;;7.40;2.45;;;;;;;;;;4876579;29;20057;-61
2023/04/19 03:13:16;;;;;;;7.20;2.20;;;;;;;;;;4857810;29;20061;-62
2023/04/19 03:15:47;;;;;;;9.00;2.17;;;;;;;;;;4821003;29;20089;-61
2023/04/19 03:18:21;;;;;;;8.98;3.33;;;;;;;;;;4820833;29;20611;-64
2023/04/19 03:20:54;;;;;;;7.18;2.80;;;;;;;;;;4802587;29;20063;-61
2023/04/19 03:23:27;;;;;;;9.85;2.33;;;;;;;;;;4766912;30;20056;-62
2023/04/19 03:25:59;;;;;;;;;;;;;;;;;;4766998;30;20067;-63
2023/04/19 03:28:39;;;;;;;7.03;2.30;;;;;;;;;;4766744;30;19926;-62
2023/04/19 03:31:12;;;;;;;5.53;2.50;;;;;;;;;;4793348;29;20063;-62
2023/04/19 03:33:42;;;;;;;9.15;2.42;;;;;;;;;;4784415;30;20409;-61
2023/04/19 03:36:13;;;;;;;14.00;2.53;;;;;;;;;;4766010;30;20059;-64
2023/04/19 03:38:46;;;;;;;19.75;3.08;;;;;;;;;;4748941;30;20067;-63
2023/04/19 03:41:25;;;;;;;10.00;2.38;;;;;;;;;;4748413;30;20056;-61
2023/04/19 03:44:27;;;;;;;6.90;2.50;;;;;;;;;;4749304;30;20064;-62
2023/04/19 03:46:58;;;;;;;6.22;2.30;;;;;;;;;;4748831;30;20438;-62
2023/04/19 03:49:33;;;;;;;11.80;3.13;;;;;;;;;;4734200;30;20183;-61
2023/04/19 03:52:05;;;;;;;6.13;2.25;;;;;;;;;;4693245;30;20092;-61
2023/04/19 03:54:35;;;;;;;7.07;2.78;;;;;;;;;;4696773;30;20072;-61
2023/04/19 03:57:14;;;;;;;8.02;2.80;;;;;;;;;;4712703;30;20178;-62
2023/04/19 03:59:44;;;;;;;5.35;2.28;;;;;;;;;;4705433;30;20075;-64
2023/04/19 04:02:14;;;;;;;9.07;2.60;;;;;;;;;;4713513;30;20478;-61
2023/04/19 04:04:45;;;;;;;5.85;2.20;;;;;;;;;;4713555;30;20065;-62
2023/04/19 04:07:15;;;;;;;6.90;2.03;;;;;;;;;;4688351;30;20058;-62
2023/04/19 04:09:47;;;;;;;5.60;2.47;;;;;;;;;;4678555;30;20061;-62
2023/04/19 04:12:17;;;;;;;5.03;2.03;;;;;;;;;;4714810;30;20057;-62
2023/04/19 04:14:48;;;;;;;6.45;2.40;;;;;;;;;;4712872;30;20407;-61
2023/04/19 04:17:19;;;;;;;9.10;2.60;;;;;;;;;;4745364;30;20105;-62
2023/04/19 04:19:49;;;;;;;6.55;2.42;;;;;;;;;;4765654;30;20060;-62
2023/04/19 04:22:20;;;;;;;6.07;2.22;;;;;;;;;;4758597;30;20063;-61
2023/04/19 04:24:52;;;;;;;6.10;2.15;;;;;;;;;;4750865;30;20072;-62
2023/04/19 04:27:27;;;;;;;5.53;2.65;;;;;;;;;;4747797;30;20052;-65
2023/04/19 04:29:58;;;;;;;8.35;2.20;;;;;;;;;;4740251;30;20052;-62
2023/04/19 04:32:34;;;;;;;6.93;2.10;;;;;;;;;;4756457;30;20539;-61
2023/04/19 04:35:06;;;;;;;4.88;2.20;;;;;;;;;;4747621;30;20060;-62
2023/04/19 04:37:43;;;;;;;6.30;2.30;;;;;;;;;;4747994;30;20056;-62
2023/04/19 04:40:13;;;;;;;5.45;2.22;;;;;;;;;;4747829;30;20798;-61
2023/04/19 04:42:44;;;;;;;5.80;2.28;;;;;;;;;;4733102;30;20052;-61
2023/04/19 04:45:17;;;;;;;5.45;2.38;;;;;;;;;;4732930;30;20558;-61
2023/04/19 04:47:50;;;;;;;5.43;2.20;;;;;;;;;;4736210;30;20533;-62
2023/04/19 04:50:20;;;;;;;5.95;1.88;;;;;;;;;;4689815;30;20556;-62
2023/04/19 04:52:52;;;;;;;6.05;2.17;;;;;;;;;;4727158;30;20060;-62
2023/04/19 04:55:28;;;;;;;6.32;2.15;;;;;;;;;;4712582;30;20431;-62
2023/04/19 04:57:58;;;;;;;7.07;2.85;;;;;;;;;;4715196;30;20127;-62
2023/04/19 05:00:38;;;;;;;9.30;2.50;;;;;;;;;;4760447;30;20087;-62
2023/04/19 05:03:10;;;;;;;5.57;2.05;;;;;;;;;;4747503;30;20060;-62
2023/04/19 05:05:46;;;;;;;5.05;1.90;;;;;;;;;;4750569;29;20056;-62
2023/04/19 05:08:17;;;;;;;8.70;2.38;;;;;;;;;;4769510;29;20060;-64
2023/04/19 05:10:48;;;;;;;4.80;2.15;;;;;;;;;;4783001;29;20513;-61
2023/04/19 05:13:20;;;;;;;10.52;2.30;;;;;;;;;;4795713;29;20050;-64
2023/04/19 05:15:51;;;;;;;8.02;2.40;;;;;;;;;;4782925;29;20047;-61
2023/04/19 05:18:21;;;;;;;5.35;1.95;;;;;;;;;;4800766;29;20062;-61
2023/04/19 05:20:52;;;;;;;5.53;2.45;;;;;;;;;;4800888;29;20051;-62
2023/04/19 05:23:25;;;;;;;6.88;2.47;;;;;;;;;;4795213;29;20058;-62
2023/04/19 05:25:58;;;;;;;13.40;2.38;;;;;;;;;;4801052;29;20066;-61
2023/04/19 05:28:29;;;;;;;7.07;2.40;;;;;;;;;;4803237;29;20050;-62
2023/04/19 05:31:11;;;;;;;7.13;2.20;;;;;;;;;;4781124;29;20067;-63
2023/04/19 05:33:56;;;;;;;10.02;1.85;;;;;;;;;;4783201;29;20059;-62
2023/04/19 05:36:26;;;;;;;4.68;2.05;;;;;;;;;;4822493;29;20451;-61
2023/04/19 05:38:57;;;;;;;9.00;1.98;;;;;;;;;;4804469;29;20082;-62
2023/04/19 05:41:28;;;;;;;5.93;2.05;;;;;;;;;;4808980;29;20054;-62
2023/04/19 05:43:58;;;;;;;7.68;2.10;;;;;;;;;;4789301;29;20047;-61
2023/04/19 05:46:29;;;;;;;7.32;2.10;;;;;;;;;;4768417;30;20066;-62
2023/04/19 05:49:00;;;;;;;5.35;2.08;;;;;;;;;;4778336;29;20402;-62
2023/04/19 05:51:48;;;;;;;4.25;1.73;;;;;;;;;;4754471;30;20514;-62
2023/04/19 05:54:34;;;;;;;6.82;2.00;;;;;;;;;;4736600;30;20076;-62
2023/04/19 05:57:05;;;;;;;5.55;2.33;;;;;;;;;;4768012;30;20056;-63
2023/04/19 05:59:36;;;;;;;5.40;2.08;;;;;;;;;;4785984;29;20139;-62
2023/04/19 06:02:06;;;;;;;5.63;1.80;;;;;;;;;;4803883;29;20054;-68
2023/04/19 06:04:37;;;;;;;6.50;2.05;;;;;;;;;;4821931;29;20057;-62
2023/04/19 06:07:08;;;;;;;5.07;2.00;;;;;;;;;;4826390;29;20058;-62
2023/04/19 06:09:58;;;;;;;3.83;1.45;;;;;;;;;;4840434;29;20056;-62
2023/04/19 06:12:28;;;;;;;5.00;2.13;;;;;;;;;;4840532;29;20073;-62
2023/04/19 06:14:58;;;;;;;6.55;2.25;;;;;;;;;;4795018;29;20057;-63
2023/04/19 06:17:29;;;;;;;6.60;1.77;;;;;;;;;;4818537;29;20064;-61
2023/04/19 06:20:00;;;;;;;5.70;2.45;;;;;;;;;;4840522;29;20104;-62
2023/04/19 06:22:30;;;;;;;5.78;2.15;;;;;;;;;;4840331;29;20574;-62
2023/04/19 06:25:01;;;;;;;7.20;2.08;;;;;;;;;;4860822;29;20142;-61
2023/04/19 06:27:31;;;;;;;5.60;1.90;;;;;;;;;;4809863;29;20062;-62
2023/04/19 06:30:01;;;;;;;6.18;2.10;;;;;;;;;;4840118;29;20436;-64
2023/04/19 06:32:32;;;;;;;8.52;2.20;;;;;;;;;;4854983;29;20069;-62
2023/04/19 06:35:03;;;;;;;5.88;2.00;;;;;;;;;;4846890;29;20522;-63
2023/04/19 06:37:33;;;;;;;7.80;2.00;;;;;;;;;;4822116;29;20454;-66
2023/04/19 06:40:05;;;;;;;4.78;1.92;;;;;;;;;;4908181;29;20048;-62
2023/04/19 06:42:36;;;;;;;4.10;1.65;;;;;;;;;;4925487;28;20061;-61
2023/04/19 06:45:07;;;;;;;6.00;2.03;;;;;;;;;;4972330;28;20059;-62
2023/04/19 06:47:37;;;;;;;4.22;1.58;;;;;;;;;;4991196;28;20062;-62
2023/04/19 06:50:09;;;;;;;6.95;2.05;;;;;;;;;;5010950;28;20053;-62
2023/04/19 06:52:40;;;;;;;;;;;;;;;;;;4979145;28;20050;-61
2023/04/19 06:55:10;;;;;;;4.70;1.95;;;;;;;;;;5022107;28;19921;-62
2023/04/19 06:57:41;;;;;;;8.55;1.67;;;;;;;;;;5014829;28;20064;-62
2023/04/19 07:00:12;;;;;;;7.43;2.20;;;;;;;;;;5018350;28;20404;-61
2023/04/19 07:02:42;;;;;;;6.50;2.47;;;;;;;;;;5052680;28;20497;-64
2023/04/19 07:05:12;;;;;;;7.00;2.13;;;;;;;;;;5017565;28;20052;-62
2023/04/19 07:07:42;;;;;;;8.55;2.30;;;;;;;;;;5052777;28;20041;-62
2023/04/19 07:10:12;;;;;;;11.00;2.00;;;;;;;;;;5053049;28;20045;-62
2023/04/19 07:12:43;;;;;;;7.22;1.70;;;;;;;;;;5053066;28;20049;-62
2023/04/19 07:15:13;;;;;;;5.70;2.28;;;;;;;;;;5001921;28;20044;-62
2023/04/19 07:17:43;;;;;;;5.95;2.03;;;;;;;;;;5017564;28;20056;-62
2023/04/19 07:20:13;;;;;;;5.60;1.80;;;;;;;;;;5017337;28;20075;-62
2023/04/19 07:22:43;;;;;;;6.47;2.40;;;;;;;;;;5034056;28;20457;-62
2023/04/19 07:25:13;;;;;;;4.53;1.83;;;;;;;;;;5001102;28;20053;-62
2023/04/19 07:27:44;;;;;;;7.32;2.33;;;;;;;;;;5052418;28;20052;-62
2023/04/19 07:30:14;;;;;;;6.85;1.70;;;;;;;;;;5052473;28;20044;-62
2023/04/19 07:32:45;;;;;;;4.85;1.92;;;;;;;;;;5052709;28;20049;-61
2023/04/19 07:35:15;;;;;;;4.90;2.35;;;;;;;;;;5009367;28;20054;-63
2023/04/19 07:37:45;;;;;;;9.05;2.17;;;;;;;;;;5010254;28;20532;-62
2023/04/19 07:40:17;;;;;;;6.72;2.25;;;;;;;;;;5010063;28;20061;-62
2023/04/19 07:42:47;;;;;;;6.57;1.88;;;;;;;;;;5009905;28;20056;-62
2023/04/19 07:45:17;;;;;;;5.45;2.17;;;;;;;;;;5009712;28;20414;-62
2023/04/19 07:47:47;;;;;;;4.57;1.90;;;;;;;;;;5010017;28;20057;-61
2023/04/19 07:50:18;;;;;;;6.75;2.20;;;;;;;;;;4993578;28;20086;-61
2023/04/19 07:52:52;;;;;;;5.22;2.25;;;;;;;;;;5009428;28;20469;-62
2023/04/19 07:55:22;;;;;;;5.95;2.25;;;;;;;;;;4977871;28;20410;-63
2023/04/19 07:57:53;;;;;;;4.95;2.30;;;;;;;;;;5009853;28;20049;-63
2023/04/19 08:00:23;;;;;;;6.68;1.80;;;;;;;;;;5009870;28;20069;-62
2023/04/19 08:02:53;;;;;;;5.05;1.85;;;;;;;;;;5009877;28;20505;-61
2023/04/19 08:05:24;;;;;;;5.97;2.35;;;;;;;;;;5009733;28;20050;-62
2023/04/19 08:07:55;;;;;;;5.88;2.22;;;;;;;;;;5009672;28;20050;-63
2023/04/19 08:10:27;;;;;;;6.95;2.13;;;;;;;;;;5009561;28;20089;-62
2023/04/19 08:12:57;;;;;;;5.57;1.75;;;;;;;;;;5021157;28;20061;-64
2023/04/19 08:15:34;;;;;;;8.00;1.90;;;;;;;;;;5031680;28;20704;-62
2023/04/19 08:18:24;;;;;;;5.68;2.10;;;;;;;;;;5031692;28;20405;-63
2023/04/19 08:20:57;;;;;;;7.25;2.05;;;;;;;;;;5031783;28;20068;-62
2023/04/19 08:23:27;;;;;;;8.43;2.55;;;;;;;;;;4970173;28;20503;-65
2023/04/19 08:26:15;;;;;;;7.53;1.65;;;;;;;;;;4922838;28;20066;-65
2023/04/19 08:28:45;;;;;;;3.38;1.55;;;;;;;;;;4953992;28;20047;-62
2023/04/19 08:31:15;;;;;;;5.82;1.63;;;;;;;;;;4954092;28;20050;-63
2023/04/19 08:33:46;;;;;;;3.88;1.60;;;;;;;;;;4953213;28;20054;-63
2023/04/19 08:36:16;;;;;;;4.82;2.03;;;;;;;;;;4919686;29;20164;-62
2023/04/19 08:38:56;;;;;;;4.68;1.80;;;;;;;;;;4950714;29;20067;-63
2023/04/19 08:41:39;;;;;;;4.60;1.73;;;;;;;;;;4950899;29;20060;-63
2023/04/19 08:44:14;;;;;;;4.95;1.63;;;;;;;;;;4888866;29;20062;-64
2023/04/19 08:46:59;;;;;;;6.20;2.10;;;;;;;;;;4950653;29;20180;-64
2023/04/19 08:49:31;;;;;;;4.00;1.80;;;;;;;;;;4950740;28;20050;-62
2023/04/19 08:52:02;;;;;;;3.80;1.70;;;;;;;;;;4950730;29;20051;-62
2023/04/19 08:54:35;;;;;;;4.75;1.70;;;;;;;;;;4934561;29;20078;-65
2023/04/19 08:57:07;;;;;;;6.68;2.45;;;;;;;;;;4919109;29;21123;-62
2023/04/19 08:59:38;;;;;;;2.78;1.40;;;;;;;;;;4918771;29;20070;-64
2023/04/19 09:02:08;;;;;;;4.68;1.35;;;;;;;;;;4988008;28;20041;-62
2023/04/19 09:04:39;;;;;;;3.28;1.80;;;;;;;;;;5008174;28;20073;-62
2023/04/19 09:07:25;;;;;;;3.88;1.60;;;;;;;;;;5008676;28;20058;-62
2023/04/19 09:10:11;;;;;;;3.35;1.73;;;;;;;;;;5009041;28;20046;-62
2023/04/19 09:12:42;;;;;;;4.47;1.48;;;;;;;;;;4975888;28;20061;-62
2023/04/19 09:15:13;;;;;;;4.93;1.63;;;;;;;;;;5030974;28;20041;-62
2023/04/19 09:17:43;;;;;;;3.55;1.58;;;;;;;;;;5012510;28;20058;-62
2023/04/19 09:20:15;;;;;;;4.78;2.00;;;;;;;;;;5013133;28;20069;-62
2023/04/19 09:23:04;;;;;;;5.97;1.73;;;;;;;;;;5011377;28;20064;-61
2023/04/19 09:25:34;;;;;;;5.00;1.42;;;;;;;;;;5028151;28;20813;-62
2023/04/19 09:28:25;;;;;;;3.75;1.52;;;;;;;;;;5028273;28;20065;-62
2023/04/19 09:30:55;;;;;;;3.28;1.40;;;;;;;;;;5028013;28;20052;-62
2023/04/19 09:33:38;;;;;;;4.63;1.60;;;;;;;;;;5028075;28;20065;-65
2023/04/19 09:36:10;;;;;;;7.68;1.80;;;;;;;;;;4994980;28;20052;-62
2023/04/19 09:38:49;;;;;;;3.78;1.48;;;;;;;;;;4994813;28;20073;-63
2023/04/19 09:41:19;;;;;;;6.72;1.42;;;;;;;;;;4932088;28;20062;-62
2023/04/19 09:43:49;;;;;;;3.35;1.35;;;;;;;;;;5027883;28;20057;-62
2023/04/19 09:46:41;;;;;;;4.40;1.38;;;;;;;;;;5027955;28;20049;-63
2023/04/19 09:49:18;;;;;;;2.70;1.20;;;;;;;;;;4995256;28;20073;-61
2023/04/19 09:52:12;;;;;;;3.05;1.42;;;;;;;;;;4978056;28;20061;-64
2023/04/19 09:54:43;;;;;;;4.20;1.60;;;;;;;;;;4991574;28;20553;-62
2023/04/19 09:57:14;;;;;;;4.32;2.00;;;;;;;;;;4975786;28;20062;-63
2023/04/19 09:59:44;;;;;;;5.63;1.42;;;;;;;;;;5013162;28;20509;-63
2023/04/19 10:02:15;;;;;;;3.42;1.30;;;;;;;;;;5030231;28;20049;-62
2023/04/19 10:04:46;;;;;;;4.10;1.60;;;;;;;;;;5030440;28;20053;-63
2023/04/19 10:07:37;;;;;;;4.70;1.42;;;;;;;;;;5030663;28;20505;-62
2023/04/19 10:10:07;;;;;;;5.30;1.40;;;;;;;;;;5030410;28;20048;-61
2023/04/19 10:12:52;;;;;;;3.90;1.55;;;;;;;;;;4979428;28;20069;-66
2023/04/19 10:15:26;;;;;;;4.85;1.70;;;;;;;;;;5030598;28;20045;-61
2023/04/19 10:18:11;;;;;;;5.28;1.80;;;;;;;;;;5033653;28;20041;-62
2023/04/19 10:21:00;;;;;;;4.05;1.75;;;;;;;;;;5033794;28;20414;-61
2023/04/19 10:23:32;;;;;;;6.40;2.13;;;;;;;;;;4982483;28;20101;-61
2023/04/19 10:26:02;;;;;;;4.95;1.77;;;;;;;;;;4982260;28;20046;-64
2023/04/19 10:28:36;;;;;;;4.60;1.80;;;;;;;;;;4978541;28;20057;-63
2023/04/19 10:31:14;;;;;;;6.07;2.10;;;;;;;;;;5011471;28;20053;-62
2023/04/19 10:33:46;;;;;;;6.18;1.92;;;;;;;;;;5011064;28;20069;-62
2023/04/19 10:36:18;;;;;;;9.75;2.42;;;;;;;;;;5011435;28;20053;-63
2023/04/19 10:38:54;;;;;;;4.68;2.33;;;;;;;;;;4962866;28;20470;-63
2023/04/19 10:42:00;;;;;;;5.05;2.30;;;;;;;;;;4978768;28;20061;-62
2023/04/19 10:44:31;;;;;;;4.57;2.45;;;;;;;;;;5011137;28;20487;-62
2023/04/19 10:47:01;;;;;;;8.30;2.75;;;;;;;;;;5010979;28;20065;-61
2023/04/19 10:49:43;;;;;;;8.13;2.92;;;;;;;;;;4955000;28;20507;-64
2023/04/19 10:52:28;;;;;;;6.25;2.70;;;;;;;;;;4955728;28;20597;-62
2023/04/19 10:55:03;;;;;;;;;;;;;;;;;;4972404;28;20071;-63
2023/04/19 10:58:02;;;;;;;10.68;3.83;;;;;;;;;;4940423;28;20060;-61
2023/04/19 11:00:34;;;;;;;8.07;3.42;;;;;;;;;;4939436;28;20062;-62
2023/04/19 11:03:41;;;;;;;8.43;3.30;;;;;;;;;;4917692;29;20043;-62
2023/04/19 11:06:25;;;;;;;5.97;2.85;;;;;;;;;;4933049;29;20066;-62
2023/04/19 11:08:56;;;;;;;4.22;2.10;;;;;;;;;;4932842;29;20062;-62
2023/04/19 11:11:27;;;;;;;6.47;2.47;;;;;;;;;;4933202;29;20055;-61
2023/04/19 11:14:01;;;;;;;7.13;2.65;;;;;;;;;;4917623;29;20424;-61
2023/04/19 11:16:31;;;;;;;4.32;2.10;;;;;;;;;;4932519;29;20051;-62
2023/04/19 11:19:17;;;;;;;7.70;2.75;;;;;;;;;;4930727;29;20516;-63
2023/04/19 11:21:48;;;;;;;5.57;2.05;;;;;;;;;;4948354;29;20044;-62
2023/04/19 11:24:19;;;;;;;5.75;2.30;;;;;;;;;;4939058;29;20055;-62
2023/04/19 11:26:49;;;;;;;5.38;2.30;;;;;;;;;;4958504;28;20058;-63
2023/04/19 11:29:24;;;;;;;4.88;2.33;;;;;;;;;;4947178;28;20055;-62
2023/04/19 11:31:54;;;;;;;10.48;2.67;;;;;;;;;;4938035;28;20061;-62
2023/04/19 11:34:24;;;;;;;4.95;2.22;;;;;;;;;;4987760;28;20062;-63
2023/04/19 11:36:54;;;;;;;7.20;2.70;;;;;;;;;;5029204;28;20501;-61
2023/04/19 11:39:24;;;;;;;7.25;2.85;;;;;;;;;;5032094;28;20046;-60
2023/04/19 11:41:55;;;;;;;7.63;2.70;;;;;;;;;;5031907;28;20052;-60
2023/04/19 11:44:25;;;;;;;5.60;2.65;;;;;;;;;;5031431;28;20040;-60
2023/04/19 11:47:02;;;;;;;5.95;2.50;;;;;;;;;;5031641;28;20040;-61
2023/04/19 11:49:33;;;;;;;5.57;2.70;;;;;;;;;;4997412;28;20156;-59
2023/04/19 11:52:06;;;;;;;5.75;2.50;;;;;;;;;;5013298;28;20060;-59
2023/04/19 11:54:36;;;;;;;7.88;2.60;;;;;;;;;;5013148;28;20060;-60
2023/04/19 11:57:07;;;;;;;6.00;2.70;;;;;;;;;;4981013;28;20060;-60
2023/04/19 11:59:38;;;;;;;8.75;3.22;;;;;;;;;;5031924;28;20045;-62
2023/04/19 12:02:11;;;;;;;6.95;2.65;;;;;;;;;;5032205;28;20045;-61
2023/04/19 12:04:41;;;;;;;9.52;3.08;;;;;;;;;;4948688;28;20060;-59
2023/04/19 12:07:11;;;;;;;5.65;2.85;;;;;;;;;;4996003;28;20420;-61
2023/04/19 12:09:41;;;;;;;6.57;2.83;;;;;;;;;;5031080;28;20524;-61
2023/04/19 12:12:11;;;;;;;8.20;2.70;;;;;;;;;;5031471;28;20512;-59
2023/04/19 12:14:51;;;;;;;6.05;2.47;;;;;;;;;;5008654;28;20065;-61
2023/04/19 12:17:22;;;;;;;5.65;2.00;;;;;;;;;;4995043;28;20486;-60
2023/04/19 12:19:51;;;;;;;5.53;2.47;;;;;;;;;;5009281;28;20403;-61
2023/04/19 12:22:23;;;;;;;5.47;1.95;;;;;;;;;;4976179;28;20065;-63
2023/04/19 12:24:54;;;;;;;7.38;2.03;;;;;;;;;;5008095;28;20049;-59
2023/04/19 12:27:24;;;;;;;5.28;1.40;;;;;;;;;;4989512;28;20059;-59
2023/04/19 12:29:55;;;;;;;5.80;1.85;;;;;;;;;;4989151;28;20467;-59
2023/04/19 12:32:25;;;;;;;4.68;1.73;;;;;;;;;;4969733;28;20059;-60
2023/04/19 12:34:55;;;;;;;4.38;1.75;;;;;;;;;;4971900;28;20058;-66
2023/04/19 12:37:25;;;;;;;4.93;1.55;;;;;;;;;;4956799;28;20058;-59
2023/04/19 12:39:55;;;;;;;2.50;1.40;;;;;;;;;;4969902;28;20647;-58
2023/04/19 12:42:25;;;;;;;3.25;1.50;;;;;;;;;;4977979;28;20085;-60
2023/04/19 12:44:55;;;;;;;5.63;1.30;;;;;;;;;;4956389;28;20138;-59
2023/04/19 12:47:25;;;;;;;2.72;1.10;;;;;;;;;;4956417;28;20118;-59
2023/04/19 12:49:56;;;;;;;2.33;0.98;;;;;;;;;;4988858;28;20577;-60
2023/04/19 12:52:26;;;;;;;2.70;1.00;;;;;;;;;;4998437;28;20073;-63
2023/04/19 12:54:56;;;;;;;3.95;1.10;;;;;;;;;;5007650;28;20559;-61
2023/04/19 12:57:26;;;;;;;2.33;1.10;;;;;;;;;;5008109;28;20053;-59
2023/04/19 12:59:56;;;;;;;2.60;1.10;;;;;;;;;;5007878;28;20058;-62
2023/04/19 13:02:28;;;;;;;3.78;1.00;;;;;;;;;;5008806;28;20050;-59
2023/04/19 13:04:58;;;;;;;2.67;0.90;;;;;;;;;;5018730;28;20057;-62
2023/04/19 13:07:29;;;;;;;4.50;1.42;;;;;;;;;;4979709;28;20061;-60
2023/04/19 13:09:58;;;;;;;2.85;1.25;;;;;;;;;;5030171;28;20049;-60
2023/04/19 13:12:28;;;;;;;3.80;1.20;;;;;;;;;;5030714;28;20064;-61
2023/04/19 13:14:58;;;;;;;2.28;1.13;;;;;;;;;;5008423;28;20161;-60
2023/04/19 13:17:32;;;;;;;4.25;1.10;;;;;;;;;;4942999;28;20058;-60
2023/04/19 13:20:02;;;;;;;3.15;1.23;;;;;;;;;;4956271;28;20059;-63
2023/04/19 13:22:33;;;;;;;4.30;1.20;;;;;;;;;;4941161;28;20545;-60
2023/04/19 13:25:03;;;;;;;2.97;0.90;;;;;;;;;;4971367;28;20053;-59
2023/04/19 13:27:33;;;;;;;3.05;1.10;;;;;;;;;;4988749;28;20494;-59
2023/04/19 13:30:03;;;;;;;2.60;1.02;;;;;;;;;;4989044;28;20546;-59
2023/04/19 13:32:34;;;;;;;3.42;0.93;;;;;;;;;;4972601;28;20054;-62
2023/04/19 13:35:04;;;;;;;3.95;1.05;;;;;;;;;;4988834;28;20072;-60
2023/04/19 13:37:34;;;;;;;3.03;1.10;;;;;;;;;;4949300;29;20051;-60
2023/04/19 13:40:06;;;;;;;4.10;1.00;;;;;;;;;;4949574;29;20051;-60
2023/04/19 13:42:47;;;;;;;5.70;0.90;;;;;;;;;;4948793;29;20510;-59
2023/04/19 13:45:17;;;;;;;2.85;1.10;;;;;;;;;;4918025;29;20051;-64
2023/04/19 13:47:47;;;;;;;2.70;1.02;;;;;;;;;;4933911;29;20129;-59
2023/04/19 13:50:17;;;;;;;1.50;0.60;;;;;;;;;;4933998;29;20086;-59
2023/04/19 13:52:47;;;;;;;2.28;0.80;;;;;;;;;;4964054;28;20205;-60
2023/04/19 13:55:17;;;;;;;1.60;0.68;;;;;;;;;;4940800;28;20518;-60
2023/04/19 13:57:47;;;;;;;2.28;1.10;;;;;;;;;;4934121;29;20091;-61
2023/04/19 14:00:18;;;;;;;6.18;1.00;;;;;;;;;;4934309;29;20055;-63
2023/04/19 14:02:49;;;;;;;2.55;0.90;;;;;;;;;;4918568;29;20531;-60
2023/04/19 14:05:20;;;;;;;1.77;0.95;;;;;;;;;;4918412;29;20056;-60
2023/04/19 14:07:51;;;;;;;1.85;0.77;;;;;;;;;;4902746;29;20428;-62
2023/04/19 14:10:22;;;;;;;1.75;0.88;;;;;;;;;;4934200;29;20056;-60
2023/04/19 14:12:52;;;;;;;1.70;0.75;;;;;;;;;;4934368;29;20044;-60
2023/04/19 14:15:24;;;;;;;5.60;1.00;;;;;;;;;;4945049;29;20059;-61
2023/04/19 14:17:55;;;;;;;2.92;1.38;;;;;;;;;;4933600;29;20594;-63
2023/04/19 14:20:25;;;;;;;3.20;0.88;;;;;;;;;;4953208;28;20062;-61
2023/04/19 14:22:59;;;;;;;2.15;0.80;;;;;;;;;;4972585;28;20059;-61
2023/04/19 14:25:30;;;;;;;10.25;1.20;;;;;;;;;;4972330;28;20495;-60
2023/04/19 14:28:00;;;;;;;4.05;0.90;;;;;;;;;;4972454;28;20047;-60
2023/04/19 14:30:30;;;;;;;3.35;0.88;;;;;;;;;;4956697;28;20062;-60
2023/04/19 14:33:00;;;;;;;3.30;0.95;;;;;;;;;;4924322;28;20059;-60
2023/04/19 14:35:31;;;;;;;3.03;0.70;;;;;;;;;;4992831;28;20418;-61
2023/04/19 14:38:01;;;;;;;1.58;0.75;;;;;;;;;;5011511;28;20049;-61
2023/04/19 14:40:31;;;;;;;2.67;0.93;;;;;;;;;;5011457;28;20046;-60
2023/04/19 14:43:01;;;;;;;4.60;0.73;;;;;;;;;;5011095;28;20053;-61
2023/04/19 14:45:32;;;;;;;2.28;0.75;;;;;;;;;;5011177;28;20049;-61
2023/04/19 14:48:02;;;;;;;2.60;0.80;;;;;;;;;;5011065;28;20050;-61
2023/04/19 14:50:32;;;;;;;1.83;0.80;;;;;;;;;;4978545;28;20057;-60
2023/04/19 14:53:02;;;;;;;2.03;0.77;;;;;;;;;;4994386;28;20065;-60
2023/04/19 14:55:32;;;;;;;4.15;0.70;;;;;;;;;;4959853;28;20065;-59
2023/04/19 14:58:02;;;;;;;2.72;1.10;;;;;;;;;;4996143;28;20068;-60
2023/04/19 15:00:33;;;;;;;1.95;1.10;;;;;;;;;;4994258;28;20052;-60
2023/04/19 15:03:04;;;;;;;1.92;0.80;;;;;;;;;;5009583;28;20062;-61
2023/04/19 15:05:35;;;;;;;3.42;1.00;;;;;;;;;;5010777;28;20049;-60
2023/04/19 15:08:05;;;;;;;3.45;0.95;;;;;;;;;;4977798;28;20097;-60
2023/04/19 15:10:51;;;;;;;1.85;0.90;;;;;;;;;;4990911;28;20061;-60
2023/04/19 15:13:21;;;;;;;5.30;1.40;;;;;;;;;;4990943;28;20069;-61
2023/04/19 15:15:51;;;;;;;2.97;0.90;;;;;;;;;;4942926;28;20069;-60